Time;durP1;ratioP1;P1;durP2;ratioP2;P2;SDS_P1;SDS_P2;PMS_P1;PMS_P2;Temp;Humidity;BMP_temperature;BMP_pressure;BME280_temperature;BME280_humidity;BME280_pressure;Samples;Min_cycle;Max_cycle;Signal;HPM_P1;HPM_P2
2022/03/12 00:00:10;;;;;;;4.65;3.55;;;;;;;20.97;31.83;101553.22;5013503;28;20820;-66
2022/03/12 00:02:38;;;;;;;5.32;3.80;;;;;;;20.92;32.04;101546.78;5017668;28;20443;-66
2022/03/12 00:05:08;;;;;;;5.93;3.92;;;;;;;20.88;31.84;101546.31;5012208;28;20034;-66
2022/03/12 00:07:41;;;;;;;5.07;3.15;;;;;;;20.85;31.96;101540.53;5010060;28;20049;-66
2022/03/12 00:10:08;;;;;;;4.80;3.53;;;;;;;20.85;31.76;101545.84;5006154;28;20084;-66
2022/03/12 00:12:36;;;;;;;4.68;3.60;;;;;;;20.86;31.94;101544.84;5014482;28;20037;-66
2022/03/12 00:15:09;;;;;;;5.55;4.38;;;;;;;20.85;31.74;101543.19;5011014;28;20041;-65
2022/03/12 00:17:36;;;;;;;7.00;3.95;;;;;;;20.79;31.89;101542.03;5016836;28;20038;-65
2022/03/12 00:20:06;;;;;;;4.55;3.42;;;;;;;20.83;31.88;101540.72;5012290;28;20041;-65
2022/03/12 00:22:32;;;;;;;4.68;3.35;;;;;;;20.74;31.86;101534.59;5007512;28;20397;-65
2022/03/12 00:25:00;;;;;;;5.65;3.50;;;;;;;20.83;31.80;101545.19;5013544;28;20068;-66
2022/03/12 00:27:25;;;;;;;7.57;3.92;;;;;;;20.78;31.81;101543.00;5013438;28;20296;-66
2022/03/12 00:29:54;;;;;;;4.70;3.45;;;;;;;20.74;31.88;101539.88;5011372;28;20038;-66
2022/03/12 00:32:19;;;;;;;5.25;3.35;;;;;;;20.74;31.99;101539.88;5006780;28;20053;-66
2022/03/12 00:34:45;;;;;;;4.70;3.63;;;;;;;20.74;31.86;101545.19;5012616;28;20044;-66
2022/03/12 00:37:11;;;;;;;5.32;3.42;;;;;;;20.74;31.99;101541.72;5010611;28;20516;-65
2022/03/12 00:39:37;;;;;;;4.80;3.63;;;;;;;20.49;31.86;101499.41;5010314;28;20029;-66
2022/03/12 00:42:02;;;;;;;4.68;3.22;;;;;;;20.64;32.07;101541.03;5012102;28;20053;-66
2022/03/12 00:44:28;;;;;;;5.18;3.65;;;;;;;20.70;31.97;101543.88;5010306;28;20123;-66
2022/03/12 00:46:53;;;;;;;4.53;3.20;;;;;;;20.69;31.75;101544.88;5015634;28;20427;-66
2022/03/12 00:49:19;;;;;;;4.50;3.15;;;;;;;20.64;32.02;101544.53;5009623;28;20072;-67
2022/03/12 00:51:45;;;;;;;7.68;4.07;;;;;;;20.64;31.93;101546.34;5010668;28;20041;-66
2022/03/12 00:54:11;;;;;;;5.38;3.42;;;;;;;20.61;31.98;101550.16;5013100;28;20391;-65
2022/03/12 00:56:39;;;;;;;6.38;3.40;;;;;;;20.57;31.94;101548.03;5010220;28;20175;-68
2022/03/12 00:59:05;;;;;;;4.78;3.50;;;;;;;20.48;31.96;101540.09;5012471;28;20046;-68
2022/03/12 01:01:32;;;;;;;4.50;3.45;;;;;;;20.52;32.13;101536.13;5012205;28;20105;-65
2022/03/12 01:03:57;;;;;;;5.70;3.60;;;;;;;20.48;32.10;101540.09;5007497;28;20388;-67
2022/03/12 01:06:23;;;;;;;4.53;3.50;;;;;;;20.19;32.12;101502.72;5008068;28;20046;-68
2022/03/12 01:08:49;;;;;;;5.05;3.55;;;;;;;20.46;32.12;101550.00;5005695;28;20046;-68
2022/03/12 01:11:15;;;;;;;6.72;3.92;;;;;;;20.41;32.11;101539.09;5004403;28;20061;-67
2022/03/12 01:13:40;;;;;;;5.18;3.90;;;;;;;20.39;32.09;101538.41;5007972;28;20068;-67
2022/03/12 01:16:07;;;;;;;4.75;3.75;;;;;;;20.40;32.16;101541.88;5014685;28;20049;-68
2022/03/12 01:18:37;;;;;;;4.80;3.75;;;;;;;20.41;32.15;101546.19;5008350;28;20049;-67
2022/03/12 01:21:20;;;;;;;4.93;3.67;;;;;;;20.28;32.16;101528.16;5008202;28;20037;-68
2022/03/12 01:23:48;;;;;;;6.07;3.45;;;;;;;20.32;31.97;101537.44;5007878;28;20048;-67
2022/03/12 01:26:14;;;;;;;5.53;3.83;;;;;;;20.34;32.01;101546.03;5019391;28;20053;-68
2022/03/12 01:28:40;;;;;;;5.18;3.83;;;;;;;20.31;31.99;101542.88;5009768;28;20603;-68
2022/03/12 01:31:06;;;;;;;5.25;3.67;;;;;;;20.36;32.00;101551.97;5012280;28;20041;-66
2022/03/12 01:33:32;;;;;;;5.00;3.50;;;;;;;20.34;32.14;101553.97;5005842;28;20559;-68
2022/03/12 01:35:58;;;;;;;4.47;3.47;;;;;;;20.25;32.22;101538.25;5008574;28;20037;-68
2022/03/12 01:38:33;;;;;;;5.55;3.75;;;;;;;20.32;31.90;101550.66;5007719;28;20385;-68
2022/03/12 01:41:02;;;;;;;4.65;3.35;;;;;;;20.32;32.13;101548.00;5012271;28;20072;-68
2022/03/12 01:43:31;;;;;;;6.38;3.45;;;;;;;20.24;32.07;101532.13;5010441;28;20053;-68
2022/03/12 01:46:00;;;;;;;8.73;3.55;;;;;;;20.04;32.00;101507.00;5008390;28;20084;-68
2022/03/12 01:48:26;;;;;;;5.05;3.65;;;;;;;20.32;32.05;101552.47;5009791;28;20034;-68
2022/03/12 01:50:52;;;;;;;4.88;3.67;;;;;;;20.32;31.88;101560.41;5016153;28;20115;-67
2022/03/12 01:53:17;;;;;;;4.35;3.35;;;;;;;20.29;32.05;101553.63;5010210;28;20728;-68
2022/03/12 01:55:43;;;;;;;4.40;3.40;;;;;;;20.28;32.01;101557.25;5010229;28;20061;-68
2022/03/12 01:58:12;;;;;;;5.68;3.47;;;;;;;20.23;32.16;101551.63;5012576;28;20602;-67
2022/03/12 02:00:47;;;;;;;5.50;3.80;;;;;;;20.20;32.05;101547.50;5011058;28;20081;-67
2022/03/12 02:03:18;;;;;;;5.28;3.95;;;;;;;20.23;32.09;101548.97;5015351;28;20557;-67
2022/03/12 02:05:44;;;;;;;5.97;3.70;;;;;;;20.19;32.04;101550.31;5010906;28;20775;-68
2022/03/12 02:08:13;;;;;;;6.22;3.90;;;;;;;20.07;31.99;101533.94;5012364;28;20156;-67
2022/03/12 02:10:39;;;;;;;4.50;3.40;;;;;;;20.18;32.13;101554.78;5005922;28;20052;-68
2022/03/12 02:13:05;;;;;;;4.38;3.30;;;;;;;20.18;32.07;101554.78;5013341;28;20052;-67
2022/03/12 02:15:32;;;;;;;4.40;3.35;;;;;;;20.18;32.05;101548.66;5009815;28;20115;-68
2022/03/12 02:17:57;;;;;;;4.22;3.30;;;;;;;20.17;32.00;101552.28;5004930;28;20034;-67
2022/03/12 02:20:23;;;;;;;7.70;3.75;;;;;;;20.16;32.05;101540.06;5007757;28;20251;-68
2022/03/12 02:22:53;;;;;;;4.75;3.42;;;;;;;20.17;32.11;101552.28;5009312;28;20041;-68
2022/03/12 02:25:30;;;;;;;5.07;3.63;;;;;;;20.12;32.14;101538.75;5008964;28;20092;-68
2022/03/12 02:27:58;;;;;;;5.28;3.78;;;;;;;20.15;32.23;101559.56;5012393;28;20049;-67
2022/03/12 02:30:42;;;;;;;5.60;4.13;;;;;;;20.15;32.05;101546.34;5012147;28;20049;-67
2022/03/12 02:33:08;;;;;;;4.60;3.42;;;;;;;20.13;32.14;101553.63;5010295;28;20449;-67
2022/03/12 02:35:36;;;;;;;5.28;3.70;;;;;;;20.17;32.04;101554.94;5008603;28;20483;-68
2022/03/12 02:38:07;;;;;;;4.10;3.25;;;;;;;20.12;32.16;101547.50;5012830;28;20032;-67
2022/03/12 02:40:33;;;;;;;5.35;3.60;;;;;;;20.15;32.09;101543.69;5010138;28;20593;-67
2022/03/12 02:43:01;;;;;;;5.15;3.50;;;;;;;20.13;32.02;101540.41;5010369;28;20116;-64
2022/03/12 02:45:29;;;;;;;4.75;3.40;;;;;;;20.13;32.04;101549.16;5006735;28;20044;-67
2022/03/12 02:47:55;;;;;;;5.05;3.40;;;;;;;20.12;32.11;101547.50;5008911;28;20060;-67
2022/03/12 02:50:21;;;;;;;4.93;3.30;;;;;;;20.09;32.03;101546.97;5009159;28;20490;-67
2022/03/12 02:52:49;;;;;;;5.07;3.67;;;;;;;20.11;32.07;101552.97;5007214;28;20071;-67
2022/03/12 02:55:23;;;;;;;5.50;3.28;;;;;;;20.12;31.92;101555.44;5010245;28;20080;-67
2022/03/12 02:57:49;;;;;;;4.65;3.50;;;;;;;20.11;31.95;101564.38;5016831;28;20064;-68
2022/03/12 03:00:17;;;;;;;6.03;3.58;;;;;;;20.08;31.95;101556.72;5013628;28;20534;-66
2022/03/12 03:02:47;;;;;;;5.03;3.58;;;;;;;20.10;31.92;101562.69;5015996;28;20050;-68
2022/03/12 03:05:16;;;;;;;4.90;3.47;;;;;;;20.10;32.03;101556.56;5013315;28;20107;-68
2022/03/12 03:07:45;;;;;;;6.32;3.55;;;;;;;20.10;31.90;101567.16;5011165;28;21774;-67
2022/03/12 03:10:34;;;;;;;5.27;3.77;;;;;;;20.07;32.03;101560.38;5008412;28;20061;-67
2022/03/12 03:13:16;;;;;;;4.20;3.60;;;;;;;20.06;31.98;101552.59;5012929;28;20053;-67
2022/03/12 03:15:47;;;;;;;4.75;3.42;;;;;;;20.03;32.02;101563.50;5009246;28;20061;-68
2022/03/12 03:18:15;;;;;;;5.88;3.70;;;;;;;20.06;31.93;101568.47;5011717;28;20136;-68
2022/03/12 03:20:45;;;;;;;4.63;3.40;;;;;;;20.03;32.00;101563.50;5010122;28;20034;-67
2022/03/12 03:23:11;;;;;;;4.25;3.67;;;;;;;20.08;31.92;101574.41;5018127;28;20033;-68
2022/03/12 03:25:39;;;;;;;4.95;3.25;;;;;;;20.06;31.88;101571.94;5005903;28;20463;-68
2022/03/12 03:28:07;;;;;;;4.45;3.35;;;;;;;19.97;32.07;101556.25;5017591;28;20052;-68
2022/03/12 03:30:35;;;;;;;4.72;3.50;;;;;;;20.04;31.97;101570.44;5014469;28;20498;-67
2022/03/12 03:33:02;;;;;;;5.55;3.72;;;;;;;20.02;32.02;101573.25;5012818;28;20044;-68
2022/03/12 03:35:28;;;;;;;4.63;3.58;;;;;;;20.01;32.00;101574.25;5011726;28;20152;-67
2022/03/12 03:37:54;;;;;;;5.10;3.70;;;;;;;20.01;32.13;101574.25;5014186;28;20045;-68
2022/03/12 03:40:19;;;;;;;4.20;3.42;;;;;;;19.98;32.00;101576.41;5006673;28;20088;-67
2022/03/12 03:42:45;;;;;;;4.47;3.45;;;;;;;20.00;31.88;101579.72;5008223;28;20102;-68
2022/03/12 03:45:17;;;;;;;4.53;3.60;;;;;;;19.87;32.05;101567.78;5010964;28;20045;-67
2022/03/12 03:47:42;;;;;;;5.55;3.78;;;;;;;20.01;31.85;101586.66;5011800;28;20399;-68
2022/03/12 03:50:08;;;;;;;4.00;3.08;;;;;;;19.98;31.90;101585.16;5014131;28;20037;-68
2022/03/12 03:52:34;;;;;;;4.93;3.60;;;;;;;19.96;31.92;101589.78;5010452;28;20478;-68
2022/03/12 03:55:00;;;;;;;5.68;4.00;;;;;;;19.95;31.92;101584.66;5015283;28;20562;-68
2022/03/12 03:57:25;;;;;;;4.80;3.50;;;;;;;19.98;31.97;101585.16;5013014;28;20148;-68
2022/03/12 03:59:51;;;;;;;5.05;3.70;;;;;;;19.95;31.93;101582.84;5018031;28;20042;-68
2022/03/12 04:02:16;;;;;;;4.45;3.22;;;;;;;19.95;31.85;101585.50;5014387;28;20041;-67
2022/03/12 04:04:42;;;;;;;4.90;3.47;;;;;;;19.96;31.90;101594.25;5010074;28;20045;-67
2022/03/12 04:07:10;;;;;;;4.95;3.42;;;;;;;19.96;32.01;101591.59;5008377;28;20053;-67
2022/03/12 04:09:36;;;;;;;4.80;3.17;;;;;;;19.89;31.92;101586.13;5009026;28;20025;-67
2022/03/12 04:12:01;;;;;;;5.35;3.80;;;;;;;19.94;31.92;101597.06;5015201;28;20764;-67
2022/03/12 04:14:27;;;;;;;5.28;3.95;;;;;;;19.92;31.93;101604.28;5008326;28;20581;-67
2022/03/12 04:16:52;;;;;;;5.95;3.60;;;;;;;19.90;31.85;101600.97;5012437;28;20093;-67
2022/03/12 04:19:18;;;;;;;5.03;3.40;;;;;;;19.85;31.88;101593.53;5013791;28;20041;-67
2022/03/12 04:21:45;;;;;;;4.53;3.42;;;;;;;19.92;31.93;101606.94;5008114;28;20526;-66
2022/03/12 04:24:11;;;;;;;5.32;3.58;;;;;;;19.75;32.05;101587.59;5013812;28;20057;-68
2022/03/12 04:26:37;;;;;;;4.13;3.40;;;;;;;19.87;31.78;101598.66;5010584;28;20061;-66
2022/03/12 04:29:06;;;;;;;5.10;3.60;;;;;;;19.83;31.91;101597.34;5012791;28;20324;-68
2022/03/12 04:31:32;;;;;;;6.00;3.45;;;;;;;19.85;31.90;101612.03;5014046;28;20124;-67
2022/03/12 04:33:57;;;;;;;5.53;3.70;;;;;;;19.85;31.98;101611.22;5008545;28;20039;-67
2022/03/12 04:36:23;;;;;;;4.90;3.30;;;;;;;19.81;31.88;101613.34;5010494;28;20065;-68
2022/03/12 04:38:49;;;;;;;5.15;3.63;;;;;;;19.81;31.97;101604.59;5008915;28;20044;-67
2022/03/12 04:41:17;;;;;;;4.82;3.60;;;;;;;19.76;31.93;101602.44;5010016;28;20068;-68
2022/03/12 04:43:44;;;;;;;4.00;3.50;;;;;;;19.67;31.95;101599.94;5008285;28;20449;-68
2022/03/12 04:46:09;;;;;;;5.13;3.67;;;;;;;19.74;31.95;101611.50;5009767;28;20041;-68
2022/03/12 04:48:35;;;;;;;4.15;3.53;;;;;;;19.65;32.05;101607.19;5005051;28;20516;-67
2022/03/12 04:51:01;;;;;;;5.13;3.85;;;;;;;19.74;32.08;101614.13;5013809;28;20123;-67
2022/03/12 04:53:27;;;;;;;4.78;3.88;;;;;;;19.71;32.06;101617.09;5007890;28;20103;-68
2022/03/12 04:55:53;;;;;;;4.65;3.63;;;;;;;19.63;31.95;101604.72;5008957;28;20060;-68
2022/03/12 04:58:19;;;;;;;5.10;3.50;;;;;;;19.64;32.07;101613.47;5006049;28;20613;-67
2022/03/12 05:00:46;;;;;;;4.97;3.45;;;;;;;19.67;32.03;101621.91;5011898;28;20068;-67
2022/03/12 05:03:18;;;;;;;4.35;3.55;;;;;;;19.64;32.07;101616.09;5010379;28;20128;-68
2022/03/12 05:05:45;;;;;;;4.88;3.33;;;;;;;19.63;32.06;101614.44;5008357;28;20036;-67
2022/03/12 05:08:36;;;;;;;4.13;3.33;;;;;;;19.64;32.04;101613.47;5014160;28;20041;-67
2022/03/12 05:11:02;;;;;;;5.43;4.05;;;;;;;19.63;32.20;101612.63;5017861;28;20445;-67
2022/03/12 05:13:33;;;;;;;5.40;3.58;;;;;;;19.50;32.24;101606.94;5011790;28;20041;-68
2022/03/12 05:16:06;;;;;;;5.88;3.47;;;;;;;19.52;32.35;101604.94;5009944;28;20045;-68
2022/03/12 05:18:41;;;;;;;5.25;3.70;;;;;;;19.52;32.28;101615.50;5008497;28;20034;-68
2022/03/12 05:21:06;;;;;;;4.78;3.30;;;;;;;19.63;32.30;101636.41;5016090;28;20511;-67
2022/03/12 05:23:34;;;;;;;4.28;3.35;;;;;;;19.61;32.34;101641.88;5011728;28;20409;-67
2022/03/12 05:25:59;;;;;;;5.38;3.80;;;;;;;19.63;32.48;101646.97;5007140;28;20060;-67
2022/03/12 05:28:32;;;;;;;4.35;3.30;;;;;;;19.51;32.18;101632.34;5009420;28;20467;-68
2022/03/12 05:31:04;;;;;;;4.65;3.35;;;;;;;19.50;32.54;101633.34;5011283;28;20060;-68
2022/03/12 05:33:30;;;;;;;5.35;3.75;;;;;;;19.55;32.42;101642.47;5011239;28;20045;-67
2022/03/12 05:35:57;;;;;;;5.35;3.75;;;;;;;19.52;32.52;101645.41;5003793;28;20038;-68
2022/03/12 05:38:24;;;;;;;3.92;3.28;;;;;;;19.50;32.66;101644.75;5012570;28;20562;-67
2022/03/12 05:40:50;;;;;;;5.00;3.60;;;;;;;19.55;32.58;101645.13;5013086;28;20057;-67
2022/03/12 05:43:17;;;;;;;3.90;3.03;;;;;;;19.74;32.48;101651.13;5005026;28;20115;-68
2022/03/12 05:45:45;;;;;;;4.30;3.28;;;;;;;20.37;31.74;101651.50;5003762;28;20084;-67
2022/03/12 05:48:11;;;;;;;4.85;3.45;;;;;;;20.89;31.20;101651.22;5009231;28;20714;-68
2022/03/12 05:50:40;;;;;;;4.60;3.50;;;;;;;21.16;30.78;101643.88;5012124;28;20547;-67
2022/03/12 05:53:09;;;;;;;4.53;3.40;;;;;;;21.25;30.68;101630.50;5009306;28;20038;-68
2022/03/12 05:55:39;;;;;;;4.53;3.17;;;;;;;21.51;30.65;101634.72;5015834;28;20064;-67
2022/03/12 05:58:08;;;;;;;4.93;4.00;;;;;;;21.44;30.26;101629.28;5007282;28;20045;-67
2022/03/12 06:00:34;;;;;;;3.53;3.03;;;;;;;21.40;30.55;101651.81;5007136;28;20073;-68
2022/03/12 06:03:03;;;;;;;5.07;3.70;;;;;;;21.28;30.97;101655.81;5013219;28;20512;-68
2022/03/12 06:05:30;;;;;;;3.83;3.25;;;;;;;21.04;30.95;101643.44;5015147;28;20053;-68
2022/03/12 06:07:56;;;;;;;4.50;3.30;;;;;;;21.01;31.36;101652.53;5014555;28;20038;-69
2022/03/12 06:10:23;;;;;;;4.50;3.28;;;;;;;21.12;31.33;101654.81;5015659;28;20046;-68
2022/03/12 06:12:53;;;;;;;4.15;3.10;;;;;;;21.19;31.28;101657.63;5015342;28;20841;-67
2022/03/12 06:15:21;;;;;;;4.50;3.17;;;;;;;21.14;31.28;101654.66;5012799;28;20617;-67
2022/03/12 06:17:49;;;;;;;4.57;3.20;;;;;;;21.49;30.88;101661.38;5013573;28;20676;-67
2022/03/12 06:20:16;;;;;;;4.65;3.40;;;;;;;21.83;30.26;101655.78;5011159;28;20036;-67
2022/03/12 06:22:43;;;;;;;4.38;3.38;;;;;;;22.02;29.88;101649.22;5012746;28;20052;-67
2022/03/12 06:25:12;;;;;;;4.30;3.17;;;;;;;22.30;29.53;101676.97;5020842;28;20035;-68
2022/03/12 06:27:42;;;;;;;3.58;3.17;;;;;;;22.30;29.75;101663.69;5007424;28;20541;-66
2022/03/12 06:30:09;;;;;;;;;;;;;;;22.16;29.81;101675.03;5016796;28;20510;-67
2022/03/12 06:32:36;;;;;;;4.05;2.90;;;;;;;21.94;30.33;101694.38;5007789;28;20459;-67
2022/03/12 06:35:03;;;;;;;3.97;3.03;;;;;;;21.71;30.66;101681.00;5012867;28;20577;-67
2022/03/12 06:37:29;;;;;;;4.80;3.25;;;;;;;21.57;30.79;101687.06;5007602;28;20107;-66
2022/03/12 06:39:55;;;;;;;4.53;3.03;;;;;;;21.45;31.09;101689.22;5011322;28;20045;-67
2022/03/12 06:42:23;;;;;;;3.83;2.92;;;;;;;21.37;30.99;101681.31;5010383;28;20045;-67
2022/03/12 06:44:54;;;;;;;5.45;3.20;;;;;;;21.28;31.41;101695.56;5014931;28;20187;-67
2022/03/12 06:47:20;;;;;;;4.10;3.05;;;;;;;21.09;31.52;101673.69;5012641;28;20041;-66
2022/03/12 06:49:46;;;;;;;4.30;3.20;;;;;;;20.09;31.66;101525.84;5010323;28;20044;-67
2022/03/12 06:52:12;;;;;;;3.97;3.30;;;;;;;21.09;31.52;101697.53;5007454;28;20133;-67
2022/03/12 06:54:38;;;;;;;4.85;3.00;;;;;;;21.21;31.29;101692.72;5010745;28;20110;-67
2022/03/12 06:57:07;;;;;;;4.57;3.25;;;;;;;21.44;31.09;101698.19;5014024;28;20079;-67
2022/03/12 06:59:32;;;;;;;4.85;3.38;;;;;;;21.71;30.66;101699.56;5011141;28;20036;-67
2022/03/12 07:01:59;;;;;;;4.05;3.35;;;;;;;21.83;30.62;101687.59;5011519;28;20038;-67
2022/03/12 07:04:25;;;;;;;4.03;3.00;;;;;;;21.90;30.46;101708.94;5007132;28;20038;-67
2022/03/12 07:06:50;;;;;;;4.35;3.28;;;;;;;21.84;30.43;101705.16;5012547;28;20033;-67
2022/03/12 07:09:17;;;;;;;4.43;2.92;;;;;;;21.65;30.79;101719.66;5008822;28;20041;-68
2022/03/12 07:11:42;;;;;;;3.88;2.97;;;;;;;21.65;30.93;101716.16;5010701;28;20037;-67
2022/03/12 07:14:08;;;;;;;4.68;3.42;;;;;;;21.48;30.95;101703.97;5016445;28;20048;-67
2022/03/12 07:16:34;;;;;;;3.70;2.95;;;;;;;21.43;31.02;101715.06;5008230;28;20038;-67
2022/03/12 07:19:01;;;;;;;3.80;2.90;;;;;;;21.27;31.22;101691.25;5015863;28;20049;-66
2022/03/12 07:21:27;;;;;;;3.47;2.70;;;;;;;21.32;31.37;101713.59;5016215;28;20037;-67
2022/03/12 07:23:53;;;;;;;3.47;2.80;;;;;;;21.28;31.41;101714.91;5009165;28;20088;-67
2022/03/12 07:26:20;;;;;;;4.10;3.00;;;;;;;21.18;31.28;101714.22;5012110;28;20450;-67
2022/03/12 07:28:47;;;;;;;5.45;3.10;;;;;;;21.06;31.57;101705.81;5015662;28;20045;-67
2022/03/12 07:31:15;;;;;;;4.18;3.05;;;;;;;21.04;31.51;101720.22;5006169;28;20396;-67
2022/03/12 07:33:41;;;;;;;4.40;3.10;;;;;;;21.01;31.58;101729.34;5008915;28;20049;-67
2022/03/12 07:36:07;;;;;;;3.50;2.65;;;;;;;20.87;31.86;101713.28;5009619;28;20047;-67
2022/03/12 07:38:33;;;;;;;4.10;3.28;;;;;;;20.93;31.56;101726.66;5010267;28;20042;-66
2022/03/12 07:40:59;;;;;;;5.30;3.30;;;;;;;20.92;31.77;101732.13;5012292;28;20091;-67
2022/03/12 07:43:25;;;;;;;3.95;2.88;;;;;;;20.90;31.88;101727.00;5011371;28;20042;-68
2022/03/12 07:45:51;;;;;;;4.25;3.15;;;;;;;20.89;31.73;101729.81;5009433;28;20052;-67
2022/03/12 07:48:17;;;;;;;3.50;2.70;;;;;;;20.80;31.92;101719.19;5006409;28;20046;-67
2022/03/12 07:50:44;;;;;;;3.75;3.00;;;;;;;20.79;31.81;101720.19;5006649;28;20600;-67
2022/03/12 07:53:12;;;;;;;4.00;2.95;;;;;;;20.87;31.71;101726.50;5007369;28;20136;-67
2022/03/12 07:55:39;;;;;;;4.28;3.10;;;;;;;21.09;31.31;101729.31;5007410;28;20029;-67
2022/03/12 07:58:05;;;;;;;3.67;3.00;;;;;;;21.15;31.52;101735.75;5011188;28;20049;-67
2022/03/12 08:00:32;;;;;;;3.60;2.90;;;;;;;21.15;31.16;101696.03;5006835;28;20037;-67
2022/03/12 08:02:58;;;;;;;3.78;2.92;;;;;;;21.35;31.04;101738.91;5010347;28;20037;-67
2022/03/12 08:05:25;;;;;;;3.08;2.63;;;;;;;21.42;31.07;101738.09;5006781;28;20049;-67
2022/03/12 08:07:56;;;;;;;3.17;2.80;;;;;;;21.25;31.17;101743.56;5007602;28;20034;-66
2022/03/12 08:10:22;;;;;;;3.77;2.93;;;;;;;21.10;31.40;101741.56;5010543;28;20538;-67
2022/03/12 08:12:49;;;;;;;3.88;2.90;;;;;;;21.19;31.29;101741.56;5007253;28;20038;-67
2022/03/12 08:15:16;;;;;;;3.25;2.85;;;;;;;21.21;31.20;101742.22;5006202;28;20046;-68
2022/03/12 08:17:44;;;;;;;4.22;3.08;;;;;;;21.13;31.39;101740.41;5011842;28;20033;-67
2022/03/12 08:20:11;;;;;;;5.28;3.00;;;;;;;21.09;31.57;101752.31;5011186;28;20103;-68
2022/03/12 08:22:45;;;;;;;4.05;2.90;;;;;;;21.03;31.55;101745.06;5011726;28;20125;-66
2022/03/12 08:25:13;;;;;;;3.53;2.80;;;;;;;21.02;31.52;101748.69;5006984;28;20060;-67
2022/03/12 08:27:39;;;;;;;4.78;3.20;;;;;;;20.96;31.67;101750.16;5009730;28;20045;-67
2022/03/12 08:30:07;;;;;;;3.85;3.00;;;;;;;20.94;31.63;101757.44;5009745;28;20038;-67
2022/03/12 08:32:35;;;;;;;6.13;3.40;;;;;;;20.90;31.62;101753.47;5008093;28;20493;-67
2022/03/12 08:35:02;;;;;;;3.70;2.83;;;;;;;20.86;31.73;101753.97;5011700;28;20038;-67
2022/03/12 08:37:27;;;;;;;5.07;3.13;;;;;;;20.85;31.71;101762.91;5007686;28;20451;-68
2022/03/12 08:39:53;;;;;;;4.50;3.05;;;;;;;20.78;31.85;101747.66;5004784;28;20030;-67
2022/03/12 08:42:18;;;;;;;3.78;2.78;;;;;;;21.03;31.29;101756.47;5015324;28;20124;-68
2022/03/12 08:44:44;;;;;;;4.00;3.25;;;;;;;21.42;31.41;101758.47;5014352;28;20042;-67
2022/03/12 08:47:10;;;;;;;4.70;3.08;;;;;;;21.82;30.71;101768.16;5009161;28;20041;-67
2022/03/12 08:49:35;;;;;;;3.92;3.10;;;;;;;21.92;30.31;101752.06;5010569;28;20336;-66
2022/03/12 08:52:02;;;;;;;4.13;2.85;;;;;;;21.98;30.61;101759.31;5012431;28;20037;-67
2022/03/12 08:54:28;;;;;;;3.58;2.92;;;;;;;21.97;30.64;101758.50;5011034;28;20119;-67
2022/03/12 08:56:53;;;;;;;4.78;2.85;;;;;;;21.75;30.91;101758.41;5014584;28;20233;-67
2022/03/12 08:59:19;;;;;;;3.72;2.72;;;;;;;21.82;30.73;101764.66;5015456;28;20032;-67
2022/03/12 09:01:45;;;;;;;4.95;2.95;;;;;;;21.63;31.16;101761.41;5015377;28;20376;-66
2022/03/12 09:04:12;;;;;;;4.53;3.15;;;;;;;21.58;30.82;101765.56;5015010;28;20491;-67
2022/03/12 09:06:39;;;;;;;3.28;2.55;;;;;;;21.49;31.32;101762.09;5007587;28;20029;-67
2022/03/12 09:09:04;;;;;;;3.45;2.80;;;;;;;21.47;31.25;101772.03;5009949;28;20563;-67
2022/03/12 09:11:31;;;;;;;3.63;2.92;;;;;;;21.33;31.11;101751.50;5012247;28;20040;-67
2022/03/12 09:13:57;;;;;;;4.28;3.30;;;;;;;21.39;31.07;101766.75;5013105;28;20628;-67
2022/03/12 09:16:23;;;;;;;4.57;2.90;;;;;;;21.22;31.40;101749.19;5010877;28;20029;-68
2022/03/12 09:18:48;;;;;;;4.78;2.70;;;;;;;21.28;31.52;101767.09;5004793;28;20037;-67
2022/03/12 09:21:14;;;;;;;3.05;2.63;;;;;;;21.10;31.50;101743.38;5020019;28;20150;-68
2022/03/12 09:23:40;;;;;;;3.60;2.70;;;;;;;20.93;31.64;101728.47;5011833;28;20041;-67
2022/03/12 09:26:06;;;;;;;3.38;2.58;;;;;;;21.08;31.56;101748.84;5010922;28;20068;-68
2022/03/12 09:28:32;;;;;;;3.97;3.17;;;;;;;21.11;31.86;101764.41;5012367;28;20030;-68
2022/03/12 09:30:58;;;;;;;3.05;2.63;;;;;;;21.05;31.59;101767.72;5013849;28;20429;-67
2022/03/12 09:33:24;;;;;;;3.55;2.97;;;;;;;21.00;31.75;101759.41;5012836;28;20664;-66
2022/03/12 09:35:50;;;;;;;3.28;2.60;;;;;;;21.04;31.88;101773.19;5013989;28;20061;-66
2022/03/12 09:38:16;;;;;;;4.32;3.42;;;;;;;20.95;31.67;101761.75;5018588;28;20042;-66
2022/03/12 09:40:43;;;;;;;3.50;2.88;;;;;;;21.04;31.64;101770.53;5014375;28;20371;-66
2022/03/12 09:43:09;;;;;;;5.57;3.30;;;;;;;21.01;31.82;101769.03;5016812;28;20153;-67
2022/03/12 09:45:36;;;;;;;3.65;3.00;;;;;;;20.96;31.81;101762.56;5021832;28;20436;-66
2022/03/12 09:48:02;;;;;;;3.78;3.15;;;;;;;20.97;32.04;101773.00;5018046;28;20119;-67
2022/03/12 09:50:28;;;;;;;5.85;3.20;;;;;;;20.97;31.98;101773.00;5011611;28;20041;-67
2022/03/12 09:52:56;;;;;;;4.40;3.55;;;;;;;20.91;32.31;101763.06;5017511;28;20033;-66
2022/03/12 09:55:22;;;;;;;3.95;3.08;;;;;;;20.85;32.52;101753.16;5016869;28;20026;-67
2022/03/12 09:57:49;;;;;;;4.40;3.30;;;;;;;20.98;32.54;101787.06;5017088;28;20034;-67
2022/03/12 10:00:16;;;;;;;6.38;3.42;;;;;;;20.99;32.65;101786.06;5017555;28;20517;-66
2022/03/12 10:02:42;;;;;;;5.22;3.38;;;;;;;21.02;32.50;101781.28;5014824;28;20422;-67
2022/03/12 10:05:10;;;;;;;5.50;3.55;;;;;;;21.34;32.02;101777.00;5016760;28;20053;-67
2022/03/12 10:07:36;;;;;;;5.18;3.33;;;;;;;21.73;31.55;101782.44;5016295;28;20041;-67
2022/03/12 10:10:03;;;;;;;4.88;3.78;;;;;;;21.83;31.37;101795.50;5010257;28;20056;-67
2022/03/12 10:12:30;;;;;;;5.55;2.90;;;;;;;21.83;31.52;101793.66;5011612;28;20730;-67
2022/03/12 10:14:55;;;;;;;4.05;3.15;;;;;;;21.80;31.45;101798.47;5017565;28;20053;-66
2022/03/12 10:17:21;;;;;;;4.95;3.00;;;;;;;21.52;31.86;101772.34;5017182;28;20073;-67
2022/03/12 10:19:47;;;;;;;4.47;3.03;;;;;;;21.88;31.54;101793.97;4986503;28;20538;-64
2022/03/12 10:22:14;;;;;;;3.95;3.08;;;;;;;21.92;31.54;101799.78;5022450;28;20037;-68
2022/03/12 10:24:41;;;;;;;5.05;3.08;;;;;;;21.94;32.16;101803.91;5012515;28;20061;-68
2022/03/12 10:27:07;;;;;;;4.25;3.40;;;;;;;21.96;31.76;101788.66;5017553;28;20092;-67
2022/03/12 10:29:34;;;;;;;4.65;3.25;;;;;;;22.01;32.18;101796.09;5016174;28;20148;-68
2022/03/12 10:32:20;;;;;;;4.22;3.38;;;;;;;22.00;32.24;101795.28;5034177;28;20673;-65
2022/03/12 10:34:52;;;;;;;4.18;3.30;;;;;;;21.98;31.95;101778.72;5004885;28;20627;-69
2022/03/12 10:37:28;;;;;;;5.25;3.10;;;;;;;22.13;32.24;101800.06;4990553;28;20036;-65
2022/03/12 10:40:12;;;;;;;4.72;3.70;;;;;;;22.14;32.09;101799.06;5019820;28;20029;-69
2022/03/12 10:42:50;;;;;;;4.78;3.15;;;;;;;22.12;32.09;101803.72;4994217;28;20037;-68
2022/03/12 10:45:19;;;;;;;5.93;3.38;;;;;;;22.11;32.43;101791.47;5017044;28;20041;-71
2022/03/12 10:47:47;;;;;;;4.70;3.47;;;;;;;22.22;32.19;101804.34;4988087;28;20502;-67
2022/03/12 10:50:18;;;;;;;4.10;2.97;;;;;;;22.19;32.10;101793.25;5011353;28;20120;-68
2022/03/12 10:52:49;;;;;;;4.78;3.53;;;;;;;22.20;32.57;101805.50;4980665;28;20122;-68
2022/03/12 10:55:29;;;;;;;5.50;3.20;;;;;;;22.30;32.59;101808.81;5009323;28;20594;-63
2022/03/12 10:58:02;;;;;;;;;;;;;;;22.28;32.75;101808.97;4985971;28;20054;-67
2022/03/12 11:00:31;;;;;;;4.78;3.20;;;;;;;22.26;32.55;101802.16;5009008;28;19990;-67
2022/03/12 11:02:59;;;;;;;4.85;3.70;;;;;;;22.20;32.63;101798.38;4986635;28;20041;-64
2022/03/12 11:05:32;;;;;;;5.93;3.20;;;;;;;22.11;33.41;101815.34;5009062;28;20041;-63
2022/03/12 11:08:17;;;;;;;4.22;3.08;;;;;;;22.11;33.49;101822.47;4991582;28;20049;-63
2022/03/12 11:10:49;;;;;;;4.45;3.30;;;;;;;21.98;32.82;101805.22;5006613;28;20498;-64
2022/03/12 11:13:27;;;;;;;5.53;3.50;;;;;;;21.97;32.98;101826.63;5014625;28;20052;-64
2022/03/12 11:16:12;;;;;;;5.18;3.22;;;;;;;22.01;32.98;101822.63;4983642;28;20040;-64
2022/03/12 11:19:07;;;;;;;4.50;3.17;;;;;;;21.91;33.04;101835.25;5015053;28;20038;-63
2022/03/12 11:21:42;;;;;;;3.60;2.92;;;;;;;21.81;33.07;101814.22;4992074;28;20045;-64
2022/03/12 11:24:15;;;;;;;4.28;3.05;;;;;;;21.90;32.67;101837.09;5014621;28;20033;-64
2022/03/12 11:26:53;;;;;;;5.57;3.22;;;;;;;21.85;32.99;101823.47;4990698;28;20136;-64
2022/03/12 11:29:23;;;;;;;3.35;2.95;;;;;;;21.89;32.78;101834.56;5017885;28;20112;-64